createdAt,value
2023-03-31T00:01:09.316Z,6.29
2023-03-31T00:03:39.099Z,6.19
2023-03-31T00:06:06.970Z,6.23
2023-03-31T00:08:37.715Z,6.09
2023-03-31T00:11:07.809Z,6.11
2023-03-31T00:13:36.902Z,6.05
2023-03-31T00:16:08.091Z,6.03
2023-03-31T00:18:36.782Z,5.90
2023-03-31T00:21:15.083Z,6.00
2023-03-31T00:23:42.750Z,6.08
2023-03-31T00:26:10.057Z,6.03
2023-03-31T00:28:37.297Z,5.84
2023-03-31T00:31:04.959Z,5.84
2023-03-31T00:33:32.279Z,5.73
2023-03-31T00:36:02.476Z,5.48
2023-03-31T00:38:30.652Z,5.44
2023-03-31T00:40:59.096Z,5.53
2023-03-31T00:43:38.227Z,5.51
2023-03-31T00:46:34.703Z,5.52
2023-03-31T00:49:02.711Z,5.55
2023-03-31T00:51:35.289Z,5.46
2023-03-31T00:54:08.640Z,5.44
2023-03-31T00:56:40.176Z,5.39
2023-03-31T00:59:11.226Z,5.42
2023-03-31T01:01:43.159Z,5.42
2023-03-31T01:04:12.783Z,5.44
2023-03-31T01:06:50.538Z,5.27
2023-03-31T01:09:18.114Z,5.54
2023-03-31T01:11:48.115Z,5.55
2023-03-31T01:14:16.984Z,5.46
2023-03-31T01:16:45.129Z,5.32
2023-03-31T01:19:26.272Z,5.15
2023-03-31T01:22:09.482Z,5.31
2023-03-31T01:24:52.096Z,5.26
2023-03-31T01:27:42.424Z,4.77
2023-03-31T01:30:10.137Z,5.18
2023-03-31T01:33:02.526Z,5.27
2023-03-31T01:35:50.106Z,5.16
2023-03-31T01:38:49.711Z,5.24
2023-03-31T01:41:57.187Z,5.11
2023-03-31T01:44:33.777Z,5.11
2023-03-31T01:47:11.350Z,5.20
2023-03-31T01:50:04.202Z,5.21
2023-03-31T01:53:01.041Z,5.24
2023-03-31T01:55:40.879Z,5.29
2023-03-31T01:58:26.547Z,5.19
2023-03-31T02:01:13.796Z,5.45
2023-03-31T02:03:49.181Z,5.38
2023-03-31T02:06:22.227Z,5.29
2023-03-31T02:08:57.219Z,5.42
2023-03-31T02:11:26.481Z,5.45
2023-03-31T02:13:56.563Z,5.57
2023-03-31T02:16:28.042Z,5.42
2023-03-31T02:19:02.710Z,5.23
2023-03-31T02:21:38.258Z,5.35
2023-03-31T02:24:12.970Z,5.41
2023-03-31T02:26:49.932Z,5.49
2023-03-31T02:29:17.785Z,5.54
2023-03-31T02:31:58.605Z,5.30
2023-03-31T02:34:26.776Z,5.37
2023-03-31T02:36:55.407Z,5.42
2023-03-31T02:39:28.450Z,5.40
2023-03-31T02:41:56.944Z,5.40
2023-03-31T02:44:24.981Z,5.56
2023-03-31T02:46:53.210Z,5.50
2023-03-31T02:49:21.798Z,5.58
2023-03-31T02:52:14.352Z,5.42
2023-03-31T02:55:19.676Z,5.55
2023-03-31T02:58:12.751Z,5.78
2023-03-31T03:00:58.954Z,5.70
2023-03-31T03:03:56.715Z,5.88
2023-03-31T03:06:30.365Z,5.90
2023-03-31T03:09:18.596Z,5.85
2023-03-31T03:12:04.596Z,5.81
2023-03-31T03:14:40.948Z,5.70
2023-03-31T03:17:39.900Z,5.65
2023-03-31T03:20:09.548Z,5.37
2023-03-31T03:22:38.791Z,5.30
2023-03-31T03:25:07.630Z,5.42
2023-03-31T03:27:36.182Z,5.13
2023-03-31T03:30:05.845Z,5.26
2023-03-31T03:32:34.042Z,5.18
2023-03-31T03:35:02.860Z,5.43
2023-03-31T03:37:31.035Z,5.44
2023-03-31T03:39:58.496Z,5.42
2023-03-31T03:42:25.819Z,5.44
2023-03-31T03:44:53.554Z,5.49
2023-03-31T03:47:20.830Z,5.51
2023-03-31T03:49:49.348Z,5.57
2023-03-31T03:52:17.473Z,5.51
2023-03-31T03:54:44.994Z,5.44
2023-03-31T03:57:12.362Z,5.52
2023-03-31T03:59:39.943Z,4.94
2023-03-31T04:02:07.232Z,4.99
2023-03-31T04:04:35.104Z,5.28
2023-03-31T04:07:02.525Z,5.30
2023-03-31T04:09:29.947Z,5.26
2023-03-31T04:11:57.733Z,5.12
2023-03-31T04:14:26.179Z,5.12
2023-03-31T04:16:56.584Z,4.90
2023-03-31T04:19:26.208Z,5.18
2023-03-31T04:21:59.031Z,5.25
2023-03-31T04:24:33.259Z,4.98
2023-03-31T04:27:03.308Z,5.18
2023-03-31T04:29:33.917Z,5.11
2023-03-31T04:32:01.590Z,5.18
2023-03-31T04:34:35.748Z,5.16
2023-03-31T04:37:04.822Z,5.39
2023-03-31T04:39:32.237Z,5.39
2023-03-31T04:42:00.744Z,5.57
2023-03-31T04:44:29.190Z,5.63
2023-03-31T04:46:58.979Z,5.09
2023-03-31T04:49:26.407Z,5.36
2023-03-31T04:51:54.226Z,5.64
2023-03-31T04:54:21.507Z,5.24
2023-03-31T04:56:48.858Z,4.94
2023-03-31T04:59:16.587Z,4.80
2023-03-31T05:01:45.321Z,5.04
2023-03-31T05:04:13.057Z,5.22
2023-03-31T05:06:41.271Z,5.22
2023-03-31T05:09:09.958Z,5.25
2023-03-31T05:11:38.459Z,5.40
2023-03-31T05:14:06.382Z,5.74
2023-03-31T05:16:33.985Z,5.75
2023-03-31T05:19:01.348Z,5.58
2023-03-31T05:21:30.801Z,5.63
2023-03-31T05:23:58.271Z,5.59
2023-03-31T05:26:26.262Z,5.76
2023-03-31T05:28:54.975Z,5.68
2023-03-31T05:31:22.366Z,5.76
2023-03-31T05:33:49.891Z,6.00
2023-03-31T05:36:18.038Z,5.87
2023-03-31T05:38:46.035Z,6.09
2023-03-31T05:41:13.596Z,6.15
2023-03-31T05:43:41.349Z,6.05
2023-03-31T05:46:09.214Z,6.15
2023-03-31T05:48:38.175Z,6.10
2023-03-31T05:51:06.274Z,5.91
2023-03-31T05:53:34.320Z,6.05
2023-03-31T05:56:04.484Z,6.04
2023-03-31T05:58:33.920Z,6.00
2023-03-31T06:01:06.402Z,6.11
2023-03-31T06:03:35.701Z,6.29
2023-03-31T06:06:05.905Z,6.08
2023-03-31T06:08:34.074Z,6.48
2023-03-31T06:11:05.390Z,6.72
2023-03-31T06:13:33.689Z,6.97
2023-03-31T06:16:01.692Z,7.24
2023-03-31T06:18:32.002Z,7.70
2023-03-31T06:20:59.469Z,7.77
2023-03-31T06:23:27.826Z,7.77
2023-03-31T06:25:55.496Z,8.01
2023-03-31T06:28:22.901Z,8.28
2023-03-31T06:30:50.648Z,8.52
2023-03-31T06:33:17.961Z,8.58
2023-03-31T06:35:45.635Z,8.72
2023-03-31T06:38:13.384Z,9.02
2023-03-31T06:40:42.245Z,9.15
2023-03-31T06:43:09.794Z,9.41
2023-03-31T06:45:38.099Z,9.43
2023-03-31T06:48:06.181Z,9.55
2023-03-31T06:50:33.468Z,9.85
2023-03-31T06:53:01.763Z,9.81
2023-03-31T06:55:29.262Z,9.82
2023-03-31T06:57:56.752Z,9.92
2023-03-31T07:00:27.280Z,10.15
2023-03-31T07:02:55.458Z,9.94
2023-03-31T07:05:29.526Z,10.15
2023-03-31T07:07:59.162Z,10.16
2023-03-31T07:10:29.254Z,10.10
2023-03-31T07:12:57.289Z,10.19
2023-03-31T07:15:26.059Z,10.33
2023-03-31T07:18:02.351Z,10.46
2023-03-31T07:20:32.858Z,10.57
2023-03-31T07:23:00.464Z,10.67
2023-03-31T07:25:27.852Z,10.78
2023-03-31T07:27:56.070Z,10.94
2023-03-31T07:30:24.772Z,11.05
2023-03-31T07:32:52.883Z,11.49
2023-03-31T07:35:21.982Z,11.76
2023-03-31T07:37:51.603Z,11.64
2023-03-31T07:40:25.278Z,11.74
2023-03-31T07:42:53.932Z,11.75
2023-03-31T07:45:24.161Z,11.85
2023-03-31T07:47:52.197Z,11.90
2023-03-31T07:50:21.344Z,12.06
2023-03-31T07:52:48.960Z,12.33
2023-03-31T07:55:16.913Z,12.51
2023-03-31T07:57:46.439Z,12.19
2023-03-31T08:00:16.078Z,12.33
2023-03-31T08:02:45.248Z,12.27
2023-03-31T08:05:19.168Z,12.36
2023-03-31T08:07:49.319Z,12.30
2023-03-31T08:10:22.884Z,12.80
2023-03-31T08:12:51.338Z,13.17
2023-03-31T08:15:18.896Z,13.23
2023-03-31T08:17:46.621Z,13.13
2023-03-31T08:20:14.721Z,13.69
2023-03-31T08:22:43.644Z,14.14
2023-03-31T08:25:11.428Z,14.22
2023-03-31T08:27:41.017Z,14.55
2023-03-31T08:30:10.814Z,14.69
2023-03-31T08:32:39.224Z,14.44
2023-03-31T08:35:07.547Z,14.51
2023-03-31T08:37:34.987Z,14.49
2023-03-31T08:40:05.523Z,14.49
2023-03-31T08:42:35.754Z,14.73
2023-03-31T08:45:26.234Z,14.71
2023-03-31T08:48:06.612Z,14.41
2023-03-31T08:50:41.341Z,14.62
2023-03-31T08:53:21.294Z,14.49
2023-03-31T08:55:51.966Z,14.64
2023-03-31T08:58:29.156Z,14.51
2023-03-31T09:01:17.331Z,14.23
2023-03-31T09:04:16.309Z,14.51
2023-03-31T09:06:59.597Z,14.61
2023-03-31T09:09:46.917Z,15.11
2023-03-31T09:12:23.778Z,15.30
2023-03-31T09:14:59.385Z,15.76
2023-03-31T09:17:31.490Z,15.85
2023-03-31T09:20:14.889Z,16.16
2023-03-31T09:22:48.223Z,16.56
2023-03-31T09:25:21.773Z,16.78
2023-03-31T09:27:52.381Z,16.36
2023-03-31T09:30:27.639Z,16.60
2023-03-31T09:33:32.314Z,16.59
2023-03-31T09:36:01.183Z,16.32
2023-03-31T09:38:31.338Z,15.89
2023-03-31T09:41:01.695Z,15.99
2023-03-31T09:43:31.766Z,16.06
2023-03-31T09:46:09.218Z,15.83
2023-03-31T09:48:39.016Z,16.07
2023-03-31T09:51:17.263Z,15.86
2023-03-31T09:53:54.203Z,15.48
2023-03-31T09:56:41.948Z,15.78
2023-03-31T09:59:41.517Z,15.98
2023-03-31T10:02:35.965Z,15.95
2023-03-31T10:05:08.865Z,16.06
2023-03-31T10:07:36.523Z,16.38
2023-03-31T10:10:15.201Z,16.95
2023-03-31T10:12:52.863Z,17.17
2023-03-31T10:15:27.020Z,17.16
2023-03-31T10:17:58.840Z,17.23
2023-03-31T10:20:38.597Z,17.11
2023-03-31T10:23:38.693Z,16.33
2023-03-31T10:26:06.814Z,16.37
2023-03-31T10:28:36.174Z,16.50
2023-03-31T10:31:04.955Z,16.62
2023-03-31T10:33:35.335Z,16.39
2023-03-31T10:36:10.662Z,17.03
2023-03-31T10:38:43.769Z,16.88
2023-03-31T10:41:12.714Z,16.73
2023-03-31T10:43:43.322Z,16.35
2023-03-31T10:46:12.587Z,16.32
2023-03-31T10:48:42.474Z,16.37
2023-03-31T10:51:16.529Z,16.31
2023-03-31T10:53:47.054Z,16.18
2023-03-31T10:56:29.858Z,16.00
2023-03-31T10:59:06.726Z,15.98
2023-03-31T11:02:12.343Z,15.94
2023-03-31T11:05:13.624Z,16.12
2023-03-31T11:07:40.942Z,16.00
2023-03-31T11:10:30.569Z,15.75
2023-03-31T11:13:00.858Z,15.89
2023-03-31T11:15:34.331Z,15.79
2023-03-31T11:18:31.073Z,15.62
2023-03-31T11:21:23.941Z,15.58
2023-03-31T11:24:20.013Z,15.43
2023-03-31T11:26:50.773Z,15.32
2023-03-31T11:29:38.815Z,15.27
2023-03-31T11:32:25.263Z,15.62
2023-03-31T11:35:08.116Z,15.84
2023-03-31T11:38:30.200Z,15.69
2023-03-31T11:41:06.950Z,15.53
2023-03-31T11:43:46.560Z,15.83
2023-03-31T11:46:20.727Z,15.84
2023-03-31T11:48:57.613Z,16.08
2023-03-31T11:51:39.819Z,16.11
2023-03-31T11:54:12.459Z,15.86
2023-03-31T11:56:41.752Z,16.11
2023-03-31T11:59:15.051Z,15.92
2023-03-31T12:02:02.658Z,15.93
2023-03-31T12:04:38.499Z,15.88
2023-03-31T12:07:35.207Z,16.17
2023-03-31T12:10:29.745Z,16.01
2023-03-31T12:13:14.652Z,16.38
2023-03-31T12:15:52.097Z,16.28
2023-03-31T12:18:25.189Z,16.10
2023-03-31T12:20:56.860Z,16.32
2023-03-31T12:23:29.074Z,16.35
2023-03-31T12:26:08.914Z,16.55
2023-03-31T12:28:38.913Z,16.36
2023-03-31T12:31:10.209Z,16.43
2023-03-31T12:33:42.740Z,16.37
2023-03-31T12:36:16.471Z,16.22
2023-03-31T12:39:16.699Z,16.10
2023-03-31T12:42:11.791Z,16.13
2023-03-31T12:44:39.104Z,16.32
2023-03-31T12:47:34.706Z,15.92
2023-03-31T12:50:39.652Z,16.04
2023-03-31T12:53:22.507Z,16.22
2023-03-31T12:55:54.774Z,16.27
2023-03-31T12:58:26.982Z,16.24
2023-03-31T13:01:16.622Z,16.27
2023-03-31T13:04:04.704Z,16.32
2023-03-31T13:06:31.974Z,16.50
2023-03-31T13:09:04.833Z,16.48
2023-03-31T13:11:36.330Z,16.62
2023-03-31T13:14:06.013Z,16.71
2023-03-31T13:16:38.695Z,16.94
2023-03-31T13:19:06.880Z,17.22
2023-03-31T13:21:53.545Z,16.91
2023-03-31T13:24:28.444Z,17.29
2023-03-31T13:26:59.324Z,17.60
2023-03-31T13:29:41.958Z,17.87
2023-03-31T13:32:24.441Z,18.29
2023-03-31T13:35:18.781Z,18.10
2023-03-31T13:38:01.228Z,18.31
2023-03-31T13:40:58.080Z,18.30
2023-03-31T13:44:08.484Z,18.61
2023-03-31T13:46:51.322Z,18.69
2023-03-31T13:49:46.716Z,18.53
2023-03-31T13:52:21.044Z,18.60
2023-03-31T13:55:22.749Z,18.73
2023-03-31T13:58:24.958Z,18.76
2023-03-31T14:01:16.805Z,19.00
2023-03-31T14:04:01.349Z,19.27
2023-03-31T14:06:47.326Z,18.90
2023-03-31T14:09:41.436Z,18.46
2023-03-31T14:12:34.882Z,18.12
2023-03-31T14:15:03.828Z,18.17
2023-03-31T14:17:36.077Z,18.41
2023-03-31T14:20:29.992Z,18.46
2023-03-31T14:23:12.837Z,17.86
2023-03-31T14:25:50.465Z,18.31
2023-03-31T14:28:37.571Z,18.61
2023-03-31T14:31:20.601Z,18.23
2023-03-31T14:34:16.403Z,18.03
2023-03-31T14:37:00.742Z,18.16
2023-03-31T14:39:33.151Z,18.51
2023-03-31T14:42:06.082Z,18.52
2023-03-31T14:44:35.130Z,19.67
2023-03-31T14:47:03.076Z,20.35
2023-03-31T14:49:37.098Z,21.57
2023-03-31T14:52:20.160Z,21.60
2023-03-31T14:54:47.988Z,21.68
2023-03-31T14:57:24.709Z,23.02
2023-03-31T14:59:54.882Z,23.88
2023-03-31T15:02:35.444Z,24.91
2023-03-31T15:05:09.897Z,25.96
2023-03-31T15:07:40.654Z,25.59
2023-03-31T15:10:08.544Z,26.66
2023-03-31T15:12:38.408Z,26.96
2023-03-31T15:15:07.749Z,27.32
2023-03-31T15:17:41.454Z,28.81
2023-03-31T15:20:45.322Z,29.18
2023-03-31T15:23:28.281Z,28.70
2023-03-31T15:26:03.480Z,29.12
2023-03-31T15:28:40.179Z,28.54
2023-03-31T15:31:10.422Z,28.47
2023-03-31T15:33:42.255Z,28.33
2023-03-31T15:36:12.370Z,27.83
2023-03-31T15:38:40.064Z,27.76
2023-03-31T15:41:15.127Z,28.40
2023-03-31T15:43:47.667Z,28.23
2023-03-31T15:46:24.655Z,25.88
2023-03-31T15:48:54.581Z,23.88
2023-03-31T15:51:30.267Z,23.12
2023-03-31T15:53:57.980Z,22.55
2023-03-31T15:56:32.436Z,21.37
2023-03-31T15:59:05.092Z,21.16
2023-03-31T16:01:46.750Z,20.87
2023-03-31T16:04:15.972Z,20.35
2023-03-31T16:06:56.962Z,19.59
2023-03-31T16:09:53.868Z,19.11
2023-03-31T16:12:48.915Z,18.65
2023-03-31T16:15:23.721Z,18.35
2023-03-31T16:17:56.004Z,18.30
2023-03-31T16:20:29.274Z,17.84
2023-03-31T16:23:01.270Z,17.70
2023-03-31T16:25:32.084Z,17.43
2023-03-31T16:28:02.128Z,17.22
2023-03-31T16:30:38.359Z,17.12
2023-03-31T16:33:09.647Z,16.52
2023-03-31T16:35:40.186Z,16.46
2023-03-31T16:38:09.077Z,16.33
2023-03-31T16:40:39.490Z,16.28
2023-03-31T16:43:17.591Z,16.15
2023-03-31T16:45:48.098Z,16.04
2023-03-31T16:48:17.686Z,15.80
2023-03-31T16:50:47.730Z,15.54
2023-03-31T16:53:16.949Z,15.25
2023-03-31T16:55:44.922Z,14.94
2023-03-31T16:58:13.168Z,14.86
2023-03-31T17:00:41.666Z,14.53
2023-03-31T17:03:10.545Z,14.55
2023-03-31T17:05:43.576Z,14.43
2023-03-31T17:08:11.985Z,14.33
2023-03-31T17:10:41.230Z,14.19
2023-03-31T17:13:09.541Z,14.18
2023-03-31T17:15:37.982Z,13.93
2023-03-31T17:18:07.505Z,13.66
2023-03-31T17:20:35.111Z,13.51
2023-03-31T17:23:02.696Z,13.92
2023-03-31T17:25:30.885Z,13.65
2023-03-31T17:28:01.332Z,13.35
2023-03-31T17:30:29.624Z,13.28
2023-03-31T17:32:58.773Z,12.84
2023-03-31T17:35:26.065Z,13.01
2023-03-31T17:37:54.069Z,12.87
2023-03-31T17:40:24.704Z,12.80
2023-03-31T17:42:52.768Z,12.70
2023-03-31T17:45:20.183Z,12.54
2023-03-31T17:47:48.026Z,12.61
2023-03-31T17:50:15.553Z,12.63
2023-03-31T17:52:43.903Z,12.33
2023-03-31T17:55:11.826Z,12.36
2023-03-31T17:57:40.725Z,12.45
2023-03-31T18:00:10.094Z,12.18
2023-03-31T18:02:39.697Z,12.19
2023-03-31T18:05:08.579Z,12.20
2023-03-31T18:07:36.741Z,12.07
2023-03-31T18:10:05.585Z,12.06
2023-03-31T18:12:34.538Z,11.88
2023-03-31T18:15:03.088Z,11.97
2023-03-31T18:17:31.473Z,11.69
2023-03-31T18:19:59.441Z,12.00
2023-03-31T18:22:27.485Z,11.77
2023-03-31T18:24:55.613Z,11.73
2023-03-31T18:27:24.979Z,11.81
2023-03-31T18:29:52.731Z,11.58
2023-03-31T18:32:20.416Z,11.42
2023-03-31T18:34:48.522Z,11.50
2023-03-31T18:37:15.929Z,11.67
2023-03-31T18:39:43.608Z,11.51
2023-03-31T18:42:10.951Z,11.31
2023-03-31T18:44:39.481Z,11.31
2023-03-31T18:47:07.395Z,10.83
2023-03-31T18:49:34.977Z,10.85
2023-03-31T18:52:04.461Z,11.00
2023-03-31T18:54:32.484Z,10.75
2023-03-31T18:57:01.024Z,10.64
2023-03-31T18:59:28.492Z,9.85
2023-03-31T19:01:56.413Z,9.94
2023-03-31T19:04:23.853Z,9.80
2023-03-31T19:06:52.385Z,9.83
2023-03-31T19:09:20.671Z,9.98
2023-03-31T19:11:47.976Z,9.55
2023-03-31T19:14:17.321Z,9.59
2023-03-31T19:16:45.237Z,9.60
2023-03-31T19:19:12.675Z,9.77
2023-03-31T19:21:40.958Z,9.49
2023-03-31T19:24:09.821Z,9.16
2023-03-31T19:26:37.571Z,9.48
2023-03-31T19:29:05.602Z,9.20
2023-03-31T19:31:38.544Z,9.07
2023-03-31T19:34:06.597Z,8.56
2023-03-31T19:36:35.200Z,8.69
2023-03-31T19:39:04.668Z,8.97
2023-03-31T19:41:32.019Z,8.73
2023-03-31T19:43:59.773Z,9.03
2023-03-31T19:46:27.872Z,9.22
2023-03-31T19:48:55.356Z,9.06
2023-03-31T19:51:23.016Z,8.98
2023-03-31T19:53:50.397Z,9.25
2023-03-31T19:56:18.166Z,9.25
2023-03-31T19:58:47.237Z,9.24
2023-03-31T20:01:20.515Z,8.91
2023-03-31T20:03:53.245Z,9.22
2023-03-31T20:06:24.496Z,9.06
2023-03-31T20:08:54.395Z,9.17
2023-03-31T20:11:22.222Z,8.53
2023-03-31T20:13:49.725Z,8.80
2023-03-31T20:16:20.845Z,9.00
2023-03-31T20:18:56.951Z,8.77
2023-03-31T20:21:27.403Z,8.82
2023-03-31T20:23:55.060Z,8.84
2023-03-31T20:26:25.327Z,8.85
2023-03-31T20:28:55.120Z,8.89
2023-03-31T20:31:36.833Z,9.00
2023-03-31T20:34:06.911Z,8.73
2023-03-31T20:36:34.513Z,8.82
2023-03-31T20:39:04.432Z,8.74
2023-03-31T20:41:33.932Z,8.83
2023-03-31T20:44:01.797Z,8.94
2023-03-31T20:46:29.824Z,8.98
2023-03-31T20:48:58.588Z,8.86
2023-03-31T20:51:34.127Z,8.68
2023-03-31T20:54:02.058Z,8.77
2023-03-31T20:56:49.802Z,8.77
2023-03-31T20:59:17.685Z,8.91
2023-03-31T21:01:47.979Z,8.58
2023-03-31T21:04:17.284Z,8.50
2023-03-31T21:06:47.303Z,7.93
2023-03-31T21:09:16.444Z,8.12
2023-03-31T21:11:44.168Z,8.00
2023-03-31T21:14:14.686Z,7.83
2023-03-31T21:16:42.130Z,7.66
2023-03-31T21:19:09.684Z,7.55
2023-03-31T21:21:40.182Z,7.05
2023-03-31T21:24:09.320Z,6.80
2023-03-31T21:26:36.954Z,7.07
2023-03-31T21:29:04.216Z,7.29
2023-03-31T21:31:31.675Z,7.19
2023-03-31T21:34:01.553Z,7.04
2023-03-31T21:36:29.425Z,7.30
2023-03-31T21:38:58.053Z,7.25
2023-03-31T21:41:30.092Z,7.44
2023-03-31T21:44:01.751Z,7.50
2023-03-31T21:46:32.855Z,7.49
2023-03-31T21:49:01.438Z,7.58
2023-03-31T21:51:28.965Z,7.58
2023-03-31T21:53:57.188Z,7.85
2023-03-31T21:56:27.751Z,8.02
2023-03-31T21:58:55.182Z,8.16
2023-03-31T22:01:23.764Z,8.21
2023-03-31T22:03:52.056Z,8.46
2023-03-31T22:06:19.686Z,8.28
2023-03-31T22:08:47.088Z,8.37
2023-03-31T22:11:15.294Z,8.37
2023-03-31T22:13:42.633Z,8.35
2023-03-31T22:16:28.127Z,8.43
2023-03-31T22:18:55.765Z,8.02
2023-03-31T22:21:39.523Z,8.14
2023-03-31T22:24:11.425Z,8.30
2023-03-31T22:26:38.702Z,8.23
2023-03-31T22:29:06.150Z,7.85
2023-03-31T22:31:33.894Z,8.02
2023-03-31T22:34:01.284Z,8.10
2023-03-31T22:36:28.753Z,8.23
2023-03-31T22:38:56.848Z,8.03
2023-03-31T22:41:24.065Z,8.35
2023-03-31T22:43:51.643Z,8.33
2023-03-31T22:46:19.393Z,8.06
2023-03-31T22:48:50.527Z,8.08
2023-03-31T22:51:18.082Z,7.81
2023-03-31T22:53:51.148Z,7.61
2023-03-31T22:56:19.481Z,7.71
2023-03-31T22:58:48.039Z,7.57
2023-03-31T23:01:17.960Z,7.53
2023-03-31T23:03:45.995Z,7.82
2023-03-31T23:06:14.756Z,7.81
2023-03-31T23:08:44.883Z,7.83
2023-03-31T23:11:13.194Z,8.15
2023-03-31T23:13:41.257Z,8.12
2023-03-31T23:16:17.219Z,8.23
2023-03-31T23:18:47.059Z,7.81
2023-03-31T23:21:16.358Z,7.72
2023-03-31T23:23:43.640Z,7.93
2023-03-31T23:26:12.951Z,8.03
2023-03-31T23:28:40.190Z,8.17
2023-03-31T23:31:07.574Z,8.11
2023-03-31T23:33:35.104Z,7.95
2023-03-31T23:36:05.513Z,8.04
2023-03-31T23:38:34.145Z,7.99
2023-03-31T23:41:03.729Z,8.09
2023-03-31T23:43:30.933Z,8.01
2023-03-31T23:45:59.536Z,8.27
2023-03-31T23:48:27.148Z,8.43
2023-03-31T23:50:54.514Z,8.50
2023-03-31T23:53:22.189Z,8.49
2023-03-31T23:55:58.470Z,8.54
2023-03-31T23:58:26.786Z,8.42
